Lissie, Texas
Current Conditions -  °F | °C
As of 10:15 PM on Friday 19 Dec 2014 (Local Time) from KELA Reporting Station
Overcast Overcast  
Wind Chill: 53°   Ceiling: 800
Heat Index: 53°   Visibility: 7mi
Dew Point: 51°   Wind: 9mph
Humidity: 95%   Direction: 350°N
Pressure: 30.14"   Gusts: NA
Location:  29.56°N, 96.23°W
Report Text: KELA 200415Z AUTO 35008KT 7SM OVC008 12/11 A3014 RMK AO2 T01150108
Loading
Personal Weather Stations






























Interactive Weather Map New forecast layout! Learn more

10-Day Weather Forecast

Advertisements
Track Severe Weather on mobile